createdAt,value
2022-09-29T00:01:14.972Z,14.33
2022-09-29T00:03:44.566Z,15.10
2022-09-29T00:06:15.927Z,14.53
2022-09-29T00:08:44.903Z,15.50
2022-09-29T00:11:15.456Z,14.63
2022-09-29T00:13:44.124Z,14.73
2022-09-29T00:16:12.672Z,15.23
2022-09-29T00:18:41.506Z,15.27
2022-09-29T00:21:15.815Z,14.90
2022-09-29T00:23:44.330Z,14.77
2022-09-29T00:26:14.022Z,13.60
2022-09-29T00:28:46.546Z,13.97
2022-09-29T00:31:14.881Z,13.60
2022-09-29T00:33:44.417Z,13.40
2022-09-29T00:36:17.060Z,13.57
2022-09-29T00:38:47.378Z,13.43
2022-09-29T00:41:18.367Z,13.47
2022-09-29T00:43:57.082Z,13.57
2022-09-29T00:46:34.963Z,14.13
2022-09-29T00:49:07.170Z,13.10
2022-09-29T00:51:39.589Z,13.60
2022-09-29T00:54:10.566Z,13.87
2022-09-29T00:56:41.635Z,13.50
2022-09-29T00:59:14.394Z,14.60
2022-09-29T01:01:42.918Z,13.80
2022-09-29T01:04:15.705Z,14.27
2022-09-29T01:06:50.220Z,13.80
2022-09-29T01:09:21.723Z,16.70
2022-09-29T01:11:52.822Z,16.43
2022-09-29T01:14:21.593Z,15.87
2022-09-29T01:16:49.783Z,15.77
2022-09-29T01:19:23.983Z,15.30
2022-09-29T01:22:03.153Z,15.20
2022-09-29T01:25:07.749Z,14.50
2022-09-29T01:28:07.674Z,14.83
2022-09-29T01:30:52.406Z,14.47
2022-09-29T01:33:30.503Z,14.90
2022-09-29T01:36:07.963Z,13.70
2022-09-29T01:38:51.145Z,13.70
2022-09-29T01:41:29.585Z,14.70
2022-09-29T01:44:03.461Z,14.03
2022-09-29T01:46:37.641Z,15.73
2022-09-29T01:49:07.366Z,14.03
2022-09-29T01:51:42.140Z,14.00
2022-09-29T01:54:15.581Z,12.97
2022-09-29T01:56:51.196Z,13.20
2022-09-29T01:59:23.303Z,13.40
2022-09-29T02:02:00.831Z,12.40
2022-09-29T02:04:33.192Z,12.20
2022-09-29T02:07:06.134Z,11.87
2022-09-29T02:09:40.439Z,13.07
2022-09-29T02:12:11.982Z,12.43
2022-09-29T02:14:44.242Z,11.93
2022-09-29T02:17:20.009Z,11.13
2022-09-29T02:19:51.019Z,10.90
2022-09-29T02:22:20.789Z,10.80
2022-09-29T02:24:50.765Z,10.70
2022-09-29T02:27:19.108Z,10.73
2022-09-29T02:29:47.836Z,10.03
2022-09-29T02:32:17.501Z,10.00
2022-09-29T02:34:48.566Z,10.97
2022-09-29T02:37:38.146Z,10.47
2022-09-29T02:40:18.612Z,11.30
2022-09-29T02:42:59.317Z,10.90
2022-09-29T02:45:38.839Z,11.23
2022-09-29T02:48:25.048Z,11.00
2022-09-29T02:51:20.593Z,11.00
2022-09-29T02:54:00.257Z,10.27
2022-09-29T02:56:34.852Z,10.33
2022-09-29T02:59:06.817Z,9.97
2022-09-29T03:01:36.207Z,9.70
2022-09-29T03:04:05.746Z,10.47
2022-09-29T03:06:34.058Z,10.33
2022-09-29T03:09:02.316Z,9.60
2022-09-29T03:11:30.633Z,9.90
2022-09-29T03:13:58.935Z,9.47
2022-09-29T03:16:27.400Z,9.60
2022-09-29T03:18:57.100Z,9.60
2022-09-29T03:21:26.667Z,9.50
2022-09-29T03:23:57.654Z,9.67
2022-09-29T03:26:26.601Z,9.57
2022-09-29T03:28:55.193Z,9.20
2022-09-29T03:31:23.617Z,9.43
2022-09-29T03:33:52.127Z,8.60
2022-09-29T03:36:20.425Z,8.50
2022-09-29T03:38:50.009Z,9.40
2022-09-29T03:41:18.414Z,9.57
2022-09-29T03:43:46.727Z,9.90
2022-09-29T03:46:15.230Z,9.03
2022-09-29T03:48:43.660Z,8.93
2022-09-29T03:51:11.995Z,9.40
2022-09-29T03:53:40.281Z,8.70
2022-09-29T03:56:09.914Z,8.93
2022-09-29T03:58:38.257Z,8.30
2022-09-29T04:01:06.917Z,9.43
2022-09-29T04:03:35.701Z,9.27
2022-09-29T04:06:04.028Z,9.50
2022-09-29T04:08:32.275Z,9.20
2022-09-29T04:11:00.563Z,9.00
2022-09-29T04:13:30.178Z,8.97
2022-09-29T04:16:00.258Z,9.70
2022-09-29T04:18:28.929Z,9.77
2022-09-29T04:21:00.854Z,10.00
2022-09-29T04:23:30.626Z,9.37
2022-09-29T04:25:59.505Z,9.20
2022-09-29T04:28:29.175Z,9.60
2022-09-29T04:30:57.447Z,9.23
2022-09-29T04:33:25.688Z,9.90
2022-09-29T04:35:54.077Z,9.80
2022-09-29T04:38:22.386Z,9.87
2022-09-29T04:40:50.766Z,9.03
2022-09-29T04:43:19.076Z,9.43
2022-09-29T04:45:48.755Z,10.30
2022-09-29T04:48:17.216Z,9.80
2022-09-29T04:50:45.526Z,10.03
2022-09-29T04:53:17.498Z,9.67
2022-09-29T04:55:45.913Z,8.83
2022-09-29T04:58:15.008Z,10.00
2022-09-29T05:00:43.318Z,10.20
2022-09-29T05:03:13.179Z,9.13
2022-09-29T05:05:41.562Z,10.10
2022-09-29T05:08:10.134Z,10.03
2022-09-29T05:10:38.374Z,9.60
2022-09-29T05:13:06.679Z,9.63
2022-09-29T05:15:34.965Z,9.23
2022-09-29T05:18:04.113Z,9.13
2022-09-29T05:20:41.793Z,9.33
2022-09-29T05:23:11.521Z,9.00
2022-09-29T05:25:40.464Z,8.70
2022-09-29T05:28:09.554Z,8.97
2022-09-29T05:30:37.938Z,8.40
2022-09-29T05:33:06.460Z,8.90
2022-09-29T05:35:36.010Z,8.10
2022-09-29T05:38:04.526Z,7.77
2022-09-29T05:40:32.971Z,8.07
2022-09-29T05:43:01.668Z,8.03
2022-09-29T05:45:30.365Z,7.90
2022-09-29T05:47:58.699Z,7.07
2022-09-29T05:50:27.006Z,7.63
2022-09-29T05:52:56.632Z,7.30
2022-09-29T05:55:25.174Z,6.87
2022-09-29T05:57:53.436Z,6.70
2022-09-29T06:00:21.979Z,6.70
2022-09-29T06:02:50.298Z,6.63
2022-09-29T06:05:18.560Z,6.27
2022-09-29T06:07:46.838Z,6.80
2022-09-29T06:10:16.484Z,6.63
2022-09-29T06:12:45.133Z,6.20
2022-09-29T06:15:14.420Z,6.17
2022-09-29T06:17:42.685Z,5.83
2022-09-29T06:20:11.807Z,6.67
2022-09-29T06:22:40.136Z,6.00
2022-09-29T06:25:09.374Z,6.13
2022-09-29T06:27:39.064Z,6.27
2022-09-29T06:30:08.386Z,6.70
2022-09-29T06:32:37.670Z,6.60
2022-09-29T06:35:24.095Z,6.23
2022-09-29T06:37:55.470Z,6.30
2022-09-29T06:40:24.787Z,5.97
2022-09-29T06:42:54.353Z,6.20
2022-09-29T06:45:22.793Z,6.10
2022-09-29T06:47:51.019Z,6.00
2022-09-29T06:50:19.331Z,5.57
2022-09-29T06:53:00.313Z,5.17
2022-09-29T06:55:32.021Z,7.60
2022-09-29T06:58:04.234Z,5.60
2022-09-29T07:00:35.138Z,5.60
2022-09-29T07:03:03.642Z,5.10
2022-09-29T07:05:32.883Z,4.87
2022-09-29T07:08:02.076Z,4.80
2022-09-29T07:10:30.550Z,4.00
2022-09-29T07:12:59.118Z,3.37
2022-09-29T07:15:32.020Z,2.93
2022-09-29T07:18:01.145Z,2.80
2022-09-29T07:20:30.658Z,2.50
2022-09-29T07:22:59.798Z,4.73
2022-09-29T07:25:50.398Z,2.90
2022-09-29T07:28:16.376Z,3.17
2022-09-29T07:30:46.034Z,2.93
2022-09-29T07:33:14.440Z,3.60
2022-09-29T07:35:42.740Z,3.20
2022-09-29T07:38:11.154Z,3.10
2022-09-29T07:40:39.444Z,3.60
2022-09-29T07:43:08.104Z,2.90
2022-09-29T07:45:36.591Z,2.60
2022-09-29T07:48:06.256Z,2.33
2022-09-29T07:50:35.752Z,1.10
2022-09-29T07:53:04.004Z,1.37
2022-09-29T07:55:32.458Z,1.83
2022-09-29T07:58:01.768Z,1.10
2022-09-29T08:00:31.493Z,1.20
2022-09-29T08:03:03.486Z,1.20
2022-09-29T08:05:33.912Z,1.80
2022-09-29T08:08:04.203Z,2.00
2022-09-29T08:10:41.672Z,2.20
2022-09-29T08:13:15.463Z,2.57
2022-09-29T08:15:43.858Z,2.40
2022-09-29T08:18:12.098Z,2.80
2022-09-29T08:20:41.718Z,2.97
2022-09-29T08:23:10.043Z,3.00
2022-09-29T08:25:38.286Z,3.60
2022-09-29T08:28:06.578Z,3.67
2022-09-29T08:30:35.083Z,3.93
2022-09-29T08:33:04.042Z,3.47
2022-09-29T08:35:32.280Z,3.60
2022-09-29T08:38:01.877Z,3.37
2022-09-29T08:40:32.066Z,3.27
2022-09-29T08:43:09.258Z,3.70
2022-09-29T08:45:57.840Z,5.20
2022-09-29T08:48:34.854Z,4.30
2022-09-29T08:51:05.774Z,4.67
2022-09-29T08:53:40.636Z,4.73
2022-09-29T08:56:14.531Z,5.33
2022-09-29T08:58:43.037Z,4.97
2022-09-29T09:01:23.085Z,5.50
2022-09-29T09:04:39.568Z,5.60
2022-09-29T09:07:14.521Z,5.27
2022-09-29T09:10:06.706Z,6.60
2022-09-29T09:12:57.019Z,5.97
2022-09-29T09:15:48.317Z,6.03
2022-09-29T09:18:51.020Z,6.27
2022-09-29T09:21:22.015Z,6.10
2022-09-29T09:23:59.817Z,5.97
2022-09-29T09:26:37.284Z,6.10
2022-09-29T09:29:12.616Z,6.37
2022-09-29T09:31:45.754Z,6.50
2022-09-29T09:34:21.758Z,6.70
2022-09-29T09:37:05.132Z,7.07
2022-09-29T09:39:40.453Z,6.20
2022-09-29T09:42:17.315Z,7.13
2022-09-29T09:44:50.544Z,6.77
2022-09-29T09:47:27.297Z,7.00
2022-09-29T09:49:58.996Z,7.17
2022-09-29T09:52:32.716Z,6.63
2022-09-29T09:55:04.611Z,6.40
2022-09-29T09:58:02.623Z,6.30
2022-09-29T10:00:37.364Z,5.83
2022-09-29T10:03:09.513Z,5.97
2022-09-29T10:05:40.530Z,6.33
2022-09-29T10:08:12.479Z,6.20
2022-09-29T10:10:51.330Z,6.40
2022-09-29T10:13:29.553Z,5.60
2022-09-29T10:16:02.479Z,5.17
2022-09-29T10:18:37.397Z,5.30
2022-09-29T10:21:06.015Z,5.77
2022-09-29T10:23:35.718Z,5.87
2022-09-29T10:26:12.700Z,5.80
2022-09-29T10:28:49.392Z,6.17
2022-09-29T10:31:24.209Z,6.63
2022-09-29T10:33:56.600Z,5.82
2022-09-29T10:36:26.583Z,6.35
2022-09-29T10:38:59.615Z,6.13
2022-09-29T10:41:31.578Z,6.00
2022-09-29T10:44:21.883Z,6.03
2022-09-29T10:46:54.140Z,6.50
2022-09-29T10:49:24.441Z,6.50
2022-09-29T10:51:58.147Z,6.30
2022-09-29T10:54:27.671Z,6.50
2022-09-29T10:56:57.867Z,6.50
2022-09-29T10:59:28.747Z,6.30
2022-09-29T11:02:00.399Z,7.82
2022-09-29T11:04:32.540Z,6.75
2022-09-29T11:07:10.278Z,6.20
2022-09-29T11:09:40.919Z,6.20
2022-09-29T11:12:31.986Z,5.90
2022-09-29T11:15:02.885Z,5.78
2022-09-29T11:17:38.057Z,6.10
2022-09-29T11:20:12.716Z,5.00
2022-09-29T11:22:56.447Z,5.30
2022-09-29T11:25:51.162Z,5.90
2022-09-29T11:28:37.030Z,5.60
2022-09-29T11:31:23.803Z,6.20
2022-09-29T11:34:01.806Z,6.60
2022-09-29T11:36:38.373Z,6.70
2022-09-29T11:39:28.061Z,6.87
2022-09-29T11:42:09.493Z,7.63
2022-09-29T11:44:53.026Z,7.73
2022-09-29T11:47:51.245Z,7.63
2022-09-29T11:50:35.989Z,7.40
2022-09-29T11:53:24.743Z,7.10
2022-09-29T11:56:05.097Z,7.20
2022-09-29T11:58:46.030Z,7.60
2022-09-29T12:01:29.597Z,8.13
2022-09-29T12:04:24.687Z,8.23
2022-09-29T12:06:56.078Z,8.10
2022-09-29T12:09:45.706Z,7.50
2022-09-29T12:12:24.808Z,7.37
2022-09-29T12:15:12.045Z,7.60
2022-09-29T12:17:44.621Z,7.90
2022-09-29T12:20:21.293Z,7.37
2022-09-29T12:22:52.075Z,7.33
2022-09-29T12:25:26.051Z,7.23
2022-09-29T12:27:58.128Z,8.00
2022-09-29T12:30:30.153Z,7.30
2022-09-29T12:33:04.516Z,7.13
2022-09-29T12:35:40.134Z,7.43
2022-09-29T12:38:18.237Z,8.00
2022-09-29T12:40:51.384Z,7.67
2022-09-29T12:43:25.139Z,7.30
2022-09-29T12:46:01.145Z,7.57
2022-09-29T12:48:53.304Z,7.33
2022-09-29T12:51:31.394Z,6.93
2022-09-29T12:54:16.529Z,7.50
2022-09-29T12:56:48.191Z,7.63
2022-09-29T12:59:25.886Z,7.30
2022-09-29T13:01:57.427Z,8.00
2022-09-29T13:04:54.662Z,7.97
2022-09-29T13:07:59.536Z,8.50
2022-09-29T13:10:55.664Z,7.30
2022-09-29T13:14:04.803Z,6.90
2022-09-29T13:16:59.266Z,7.40
2022-09-29T13:20:09.876Z,7.50
2022-09-29T13:23:11.639Z,8.10
2022-09-29T13:25:54.633Z,7.40
2022-09-29T13:28:32.441Z,7.40
2022-09-29T13:31:04.103Z,8.00
2022-09-29T13:33:33.352Z,8.23
2022-09-29T13:36:02.618Z,8.17
2022-09-29T13:38:35.332Z,8.20
2022-09-29T13:41:18.486Z,7.33
2022-09-29T13:44:22.735Z,8.10
2022-09-29T13:46:52.207Z,7.90
2022-09-29T13:49:30.310Z,7.37
2022-09-29T13:52:03.838Z,8.43
2022-09-29T13:54:39.375Z,8.40
2022-09-29T13:57:27.735Z,8.00
2022-09-29T14:00:29.252Z,8.70
2022-09-29T14:03:08.104Z,7.70
2022-09-29T14:05:55.423Z,8.10
2022-09-29T14:08:30.524Z,7.70
2022-09-29T14:11:17.447Z,7.87
2022-09-29T14:13:53.444Z,8.07
2022-09-29T14:16:45.407Z,7.90
2022-09-29T14:19:35.393Z,8.20
2022-09-29T14:22:05.697Z,8.10
2022-09-29T14:24:44.608Z,8.80
2022-09-29T14:27:32.411Z,8.50
2022-09-29T14:30:16.892Z,8.77
2022-09-29T14:32:54.814Z,8.10
2022-09-29T14:35:30.066Z,7.83
2022-09-29T14:38:05.014Z,8.80
2022-09-29T14:40:34.320Z,9.10
2022-09-29T14:43:14.829Z,9.17
2022-09-29T14:46:33.325Z,8.57
2022-09-29T14:49:41.178Z,9.03
2022-09-29T14:52:21.786Z,8.07
2022-09-29T14:55:00.826Z,9.83
2022-09-29T14:57:53.532Z,9.30
2022-09-29T15:00:29.418Z,9.27
2022-09-29T15:03:04.975Z,9.30
2022-09-29T15:05:45.145Z,10.90
2022-09-29T15:08:29.221Z,11.40
2022-09-29T15:10:58.291Z,10.43
2022-09-29T15:13:31.796Z,8.23
2022-09-29T15:16:06.042Z,9.50
2022-09-29T15:18:51.074Z,9.50
2022-09-29T15:21:27.484Z,8.63
2022-09-29T15:24:31.173Z,8.17
2022-09-29T15:27:02.734Z,8.23
2022-09-29T15:29:31.636Z,8.70
2022-09-29T15:32:03.127Z,8.70
2022-09-29T15:34:31.577Z,8.73
2022-09-29T15:36:59.934Z,8.80
2022-09-29T15:39:45.226Z,8.90
2022-09-29T15:42:16.520Z,9.23
2022-09-29T15:44:55.271Z,8.60
2022-09-29T15:47:29.449Z,8.90
2022-09-29T15:49:58.016Z,9.30
2022-09-29T15:52:35.578Z,9.03
2022-09-29T15:55:03.994Z,8.63
2022-09-29T15:57:47.251Z,9.00
2022-09-29T16:00:46.701Z,8.80
2022-09-29T16:03:24.258Z,9.40
2022-09-29T16:06:07.706Z,9.77
2022-09-29T16:08:42.109Z,9.50
2022-09-29T16:11:21.703Z,9.37
2022-09-29T16:13:55.255Z,9.83
2022-09-29T16:16:30.275Z,9.47
2022-09-29T16:19:04.517Z,9.80
2022-09-29T16:21:38.214Z,9.47
2022-09-29T16:24:16.562Z,9.27
2022-09-29T16:26:46.974Z,9.40
2022-09-29T16:29:28.015Z,9.00
2022-09-29T16:31:58.228Z,10.03
2022-09-29T16:34:31.368Z,9.87
2022-09-29T16:37:02.778Z,10.10
2022-09-29T16:39:34.013Z,10.83
2022-09-29T16:42:06.667Z,10.40
2022-09-29T16:44:39.132Z,10.23
2022-09-29T16:47:16.068Z,9.20
2022-09-29T16:49:50.383Z,9.80
2022-09-29T16:52:23.590Z,10.00
2022-09-29T16:54:52.677Z,10.80
2022-09-29T16:57:25.454Z,9.57
2022-09-29T16:59:56.344Z,10.80
2022-09-29T17:02:26.090Z,11.30
2022-09-29T17:04:57.076Z,12.17
2022-09-29T17:07:28.226Z,11.87
2022-09-29T17:09:59.219Z,11.90
2022-09-29T17:12:30.095Z,13.93
2022-09-29T17:15:01.701Z,14.40
2022-09-29T17:17:30.413Z,13.67
2022-09-29T17:20:00.287Z,15.07
2022-09-29T17:22:34.034Z,14.53
2022-09-29T17:25:02.706Z,14.20
2022-09-29T17:27:48.852Z,14.30
2022-09-29T17:30:22.616Z,13.17
2022-09-29T17:32:52.152Z,13.27
2022-09-29T17:35:24.069Z,12.60
2022-09-29T17:37:53.565Z,12.93
2022-09-29T17:40:25.243Z,13.53
2022-09-29T17:42:55.457Z,12.73
2022-09-29T17:45:25.775Z,13.87
2022-09-29T17:47:54.493Z,14.10
2022-09-29T17:50:30.199Z,16.43
2022-09-29T17:52:59.898Z,15.00
2022-09-29T17:55:28.714Z,14.60
2022-09-29T17:57:57.808Z,15.57
2022-09-29T18:00:29.229Z,15.03
2022-09-29T18:02:59.470Z,14.37
2022-09-29T18:05:31.038Z,13.93
2022-09-29T18:07:59.375Z,13.47
2022-09-29T18:10:30.305Z,13.03
2022-09-29T18:12:59.317Z,12.70
2022-09-29T18:15:28.543Z,12.70
2022-09-29T18:17:58.248Z,12.50
2022-09-29T18:20:30.977Z,14.27
2022-09-29T18:23:00.171Z,14.03
2022-09-29T18:25:29.980Z,14.50
2022-09-29T18:27:58.930Z,13.47
2022-09-29T18:30:29.656Z,15.50
2022-09-29T18:33:00.364Z,15.03
2022-09-29T18:35:32.193Z,14.33
2022-09-29T18:38:01.168Z,14.70
2022-09-29T18:40:31.438Z,14.73
2022-09-29T18:42:59.953Z,14.73
2022-09-29T18:45:30.197Z,14.70
2022-09-29T18:48:00.484Z,15.70
2022-09-29T18:50:32.493Z,14.23
2022-09-29T18:53:01.850Z,14.60
2022-09-29T18:55:32.183Z,14.10
2022-09-29T18:58:01.206Z,13.60
2022-09-29T19:00:32.236Z,13.13
2022-09-29T19:03:02.679Z,14.00
2022-09-29T19:05:34.186Z,14.70
2022-09-29T19:08:04.736Z,17.17
2022-09-29T19:10:35.187Z,19.20
2022-09-29T19:13:08.280Z,18.20
2022-09-29T19:15:39.780Z,16.93
2022-09-29T19:18:08.984Z,16.87
2022-09-29T19:20:38.617Z,15.57
2022-09-29T19:23:08.245Z,15.20
2022-09-29T19:25:40.527Z,12.77
2022-09-29T19:28:08.948Z,13.77
2022-09-29T19:30:39.956Z,13.87
2022-09-29T19:33:09.674Z,12.93
2022-09-29T19:35:39.487Z,14.00
2022-09-29T19:38:07.783Z,13.27
2022-09-29T19:40:37.767Z,14.20
2022-09-29T19:43:06.261Z,13.47
2022-09-29T19:45:38.235Z,12.77
2022-09-29T19:48:07.073Z,13.80
2022-09-29T19:50:53.183Z,13.17
2022-09-29T19:53:23.277Z,13.40
2022-09-29T19:55:53.246Z,12.33
2022-09-29T19:58:21.979Z,12.70
2022-09-29T20:00:50.283Z,11.37
2022-09-29T20:03:18.526Z,12.20
2022-09-29T20:05:46.802Z,12.80
2022-09-29T20:08:15.537Z,12.03
2022-09-29T20:10:45.124Z,15.27
2022-09-29T20:13:14.783Z,14.27
2022-09-29T20:15:46.720Z,14.43
2022-09-29T20:18:15.916Z,13.70
2022-09-29T20:20:44.194Z,13.67
2022-09-29T20:23:12.485Z,14.47
2022-09-29T20:25:40.778Z,13.90
2022-09-29T20:28:15.129Z,13.90
2022-09-29T20:30:43.743Z,12.77
2022-09-29T20:33:12.067Z,13.53
2022-09-29T20:35:40.631Z,12.47
2022-09-29T20:38:09.145Z,13.63
2022-09-29T20:40:37.444Z,14.03
2022-09-29T20:43:05.810Z,14.60
2022-09-29T20:45:35.415Z,13.50
2022-09-29T20:48:03.670Z,12.73
2022-09-29T20:50:32.068Z,12.90
2022-09-29T20:53:00.406Z,14.33
2022-09-29T20:55:28.751Z,14.93
2022-09-29T20:57:57.955Z,14.50
2022-09-29T21:00:26.303Z,14.70
2022-09-29T21:02:55.861Z,13.90
2022-09-29T21:05:24.304Z,13.20
2022-09-29T21:07:52.702Z,13.43
2022-09-29T21:10:20.946Z,14.33
2022-09-29T21:12:49.226Z,15.37
2022-09-29T21:15:17.665Z,14.03
2022-09-29T21:17:45.913Z,13.90
2022-09-29T21:20:15.721Z,14.93
2022-09-29T21:22:43.974Z,14.10
2022-09-29T21:25:12.289Z,15.17
2022-09-29T21:27:41.659Z,14.20
2022-09-29T21:30:11.008Z,13.53
2022-09-29T21:32:39.948Z,13.17
2022-09-29T21:35:08.864Z,13.43
2022-09-29T21:37:38.725Z,12.23
2022-09-29T21:40:09.421Z,13.03
2022-09-29T21:42:37.721Z,12.67
2022-09-29T21:45:06.554Z,12.63
2022-09-29T21:47:48.826Z,12.90
2022-09-29T21:50:18.200Z,14.17
2022-09-29T21:52:47.812Z,14.00
2022-09-29T21:55:16.120Z,14.47
2022-09-29T21:57:44.570Z,14.43
2022-09-29T22:00:13.656Z,13.60
2022-09-29T22:02:42.025Z,15.00
2022-09-29T22:05:10.759Z,15.00
2022-09-29T22:07:39.136Z,14.07
2022-09-29T22:10:09.486Z,14.00
2022-09-29T22:12:38.287Z,14.37
2022-09-29T22:15:07.515Z,14.07
2022-09-29T22:17:35.819Z,14.00
2022-09-29T22:20:05.393Z,14.43
2022-09-29T22:22:33.682Z,15.40
2022-09-29T22:25:02.743Z,14.33
2022-09-29T22:27:32.306Z,14.37
2022-09-29T22:30:00.601Z,14.33
2022-09-29T22:32:28.858Z,14.23
2022-09-29T22:34:57.231Z,13.60
2022-09-29T22:37:30.876Z,14.13
2022-09-29T22:39:59.586Z,13.83
2022-09-29T22:42:28.505Z,13.53
2022-09-29T22:44:58.075Z,13.33
2022-09-29T22:47:26.312Z,14.80
2022-09-29T22:49:54.546Z,13.53
2022-09-29T22:52:22.766Z,13.67
2022-09-29T22:54:51.055Z,13.83
2022-09-29T22:57:19.306Z,13.50
2022-09-29T22:59:47.595Z,13.10
2022-09-29T23:02:17.221Z,13.30
2022-09-29T23:04:45.515Z,13.67
2022-09-29T23:07:13.768Z,13.50
2022-09-29T23:09:42.211Z,12.80
2022-09-29T23:12:12.005Z,12.67
2022-09-29T23:14:40.362Z,12.63
2022-09-29T23:17:08.748Z,13.03
2022-09-29T23:19:38.318Z,12.40
2022-09-29T23:22:06.596Z,12.87
2022-09-29T23:24:34.929Z,13.53
2022-09-29T23:27:03.556Z,13.50
2022-09-29T23:29:31.953Z,13.00
2022-09-29T23:32:00.219Z,13.97
2022-09-29T23:34:29.136Z,13.60
2022-09-29T23:36:59.576Z,14.20
2022-09-29T23:39:27.020Z,13.23
2022-09-29T23:41:55.673Z,12.67
2022-09-29T23:44:26.425Z,12.77
2022-09-29T23:46:55.884Z,13.10
2022-09-29T23:49:26.973Z,13.70
2022-09-29T23:51:58.140Z,13.20
2022-09-29T23:54:29.410Z,13.80
2022-09-29T23:56:58.910Z,13.47
2022-09-29T23:59:27.534Z,13.80
